sensor_id;sensor_type;location;lat;lon;timestamp;P1;durP1;ratioP1;P2;durP2;ratioP2
67571;SDS011;54397;47.506;19.158;2023-05-07T00:01:14;6.75;;;4.78;;
67571;SDS011;54397;47.506;19.158;2023-05-07T00:04:38;6.57;;;4.88;;
67571;SDS011;54397;47.506;19.158;2023-05-07T00:08:00;7.32;;;5.40;;
67571;SDS011;54397;47.506;19.158;2023-05-07T00:11:24;6.90;;;5.43;;
67571;SDS011;54397;47.506;19.158;2023-05-07T00:14:47;8.50;;;4.82;;
67571;SDS011;54397;47.506;19.158;2023-05-07T00:18:08;9.95;;;4.85;;
67571;SDS011;54397;47.506;19.158;2023-05-07T00:21:33;6.03;;;5.30;;
67571;SDS011;54397;47.506;19.158;2023-05-07T00:24:56;9.15;;;5.28;;
67571;SDS011;54397;47.506;19.158;2023-05-07T00:28:20;8.20;;;5.28;;
67571;SDS011;54397;47.506;19.158;2023-05-07T00:31:42;7.78;;;5.45;;
67571;SDS011;54397;47.506;19.158;2023-05-07T00:35:04;9.57;;;5.72;;
67571;SDS011;54397;47.506;19.158;2023-05-07T00:38:26;7.18;;;5.57;;
67571;SDS011;54397;47.506;19.158;2023-05-07T00:41:50;9.18;;;5.43;;
67571;SDS011;54397;47.506;19.158;2023-05-07T00:45:13;6.57;;;5.13;;
67571;SDS011;54397;47.506;19.158;2023-05-07T00:48:38;7.93;;;5.45;;
67571;SDS011;54397;47.506;19.158;2023-05-07T00:52:04;9.60;;;5.53;;
67571;SDS011;54397;47.506;19.158;2023-05-07T00:55:30;6.82;;;5.05;;
67571;SDS011;54397;47.506;19.158;2023-05-07T00:58:54;5.32;;;4.75;;
67571;SDS011;54397;47.506;19.158;2023-05-07T01:02:16;7.65;;;5.20;;
67571;SDS011;54397;47.506;19.158;2023-05-07T01:05:40;6.70;;;5.18;;
67571;SDS011;54397;47.506;19.158;2023-05-07T01:09:03;8.40;;;5.22;;
67571;SDS011;54397;47.506;19.158;2023-05-07T01:12:26;7.28;;;5.22;;
67571;SDS011;54397;47.506;19.158;2023-05-07T01:15:48;10.20;;;5.22;;
67571;SDS011;54397;47.506;19.158;2023-05-07T01:19:13;8.13;;;5.88;;
67571;SDS011;54397;47.506;19.158;2023-05-07T01:22:37;7.03;;;5.40;;
67571;SDS011;54397;47.506;19.158;2023-05-07T01:25:59;11.90;;;6.55;;
67571;SDS011;54397;47.506;19.158;2023-05-07T01:29:23;6.80;;;5.65;;
67571;SDS011;54397;47.506;19.158;2023-05-07T01:36:18;7.85;;;5.30;;
67571;SDS011;54397;47.506;19.158;2023-05-07T01:39:42;7.70;;;6.05;;
67571;SDS011;54397;47.506;19.158;2023-05-07T01:43:04;7.55;;;5.50;;
67571;SDS011;54397;47.506;19.158;2023-05-07T01:46:29;6.30;;;5.18;;
67571;SDS011;54397;47.506;19.158;2023-05-07T01:49:52;7.30;;;5.22;;
67571;SDS011;54397;47.506;19.158;2023-05-07T01:53:14;6.65;;;5.18;;
67571;SDS011;54397;47.506;19.158;2023-05-07T01:56:36;7.53;;;5.22;;
67571;SDS011;54397;47.506;19.158;2023-05-07T02:00:00;5.93;;;4.78;;
67571;SDS011;54397;47.506;19.158;2023-05-07T02:03:21;7.35;;;5.30;;
67571;SDS011;54397;47.506;19.158;2023-05-07T02:06:46;6.20;;;4.85;;
67571;SDS011;54397;47.506;19.158;2023-05-07T02:10:07;6.68;;;5.03;;
67571;SDS011;54397;47.506;19.158;2023-05-07T02:13:31;7.22;;;5.40;;
67571;SDS011;54397;47.506;19.158;2023-05-07T02:16:54;6.32;;;5.28;;
67571;SDS011;54397;47.506;19.158;2023-05-07T02:20:18;7.47;;;5.65;;
67571;SDS011;54397;47.506;19.158;2023-05-07T02:23:40;7.00;;;5.25;;
67571;SDS011;54397;47.506;19.158;2023-05-07T02:27:03;7.38;;;5.03;;
67571;SDS011;54397;47.506;19.158;2023-05-07T02:30:25;6.45;;;5.03;;
67571;SDS011;54397;47.506;19.158;2023-05-07T02:33:47;5.88;;;4.88;;
67571;SDS011;54397;47.506;19.158;2023-05-07T02:37:09;7.38;;;5.55;;
67571;SDS011;54397;47.506;19.158;2023-05-07T02:40:30;6.55;;;5.10;;
67571;SDS011;54397;47.506;19.158;2023-05-07T02:43:54;7.68;;;5.22;;
67571;SDS011;54397;47.506;19.158;2023-05-07T02:47:18;6.82;;;5.05;;
67571;SDS011;54397;47.506;19.158;2023-05-07T02:50:43;7.85;;;4.70;;
67571;SDS011;54397;47.506;19.158;2023-05-07T02:54:07;5.63;;;4.55;;
67571;SDS011;54397;47.506;19.158;2023-05-07T02:57:31;5.82;;;4.82;;
67571;SDS011;54397;47.506;19.158;2023-05-07T03:00:55;6.88;;;4.78;;
67571;SDS011;54397;47.506;19.158;2023-05-07T03:04:22;7.85;;;5.05;;
67571;SDS011;54397;47.506;19.158;2023-05-07T03:07:46;6.68;;;4.95;;
67571;SDS011;54397;47.506;19.158;2023-05-07T03:11:11;6.32;;;4.22;;
67571;SDS011;54397;47.506;19.158;2023-05-07T03:14:35;6.30;;;4.97;;
67571;SDS011;54397;47.506;19.158;2023-05-07T03:17:59;6.95;;;5.30;;
67571;SDS011;54397;47.506;19.158;2023-05-07T03:21:21;9.27;;;5.70;;
67571;SDS011;54397;47.506;19.158;2023-05-07T03:24:42;6.60;;;5.30;;
67571;SDS011;54397;47.506;19.158;2023-05-07T03:28:06;6.18;;;4.60;;
67571;SDS011;54397;47.506;19.158;2023-05-07T03:31:28;10.48;;;6.72;;
67571;SDS011;54397;47.506;19.158;2023-05-07T03:34:50;8.32;;;5.45;;
67571;SDS011;54397;47.506;19.158;2023-05-07T03:38:11;6.18;;;4.72;;
67571;SDS011;54397;47.506;19.158;2023-05-07T03:41:33;5.72;;;4.45;;
67571;SDS011;54397;47.506;19.158;2023-05-07T03:44:57;8.93;;;4.75;;
67571;SDS011;54397;47.506;19.158;2023-05-07T03:48:19;5.53;;;4.57;;
67571;SDS011;54397;47.506;19.158;2023-05-07T03:51:41;5.40;;;4.60;;
67571;SDS011;54397;47.506;19.158;2023-05-07T03:55:02;5.70;;;4.78;;
67571;SDS011;54397;47.506;19.158;2023-05-07T03:58:27;6.53;;;4.70;;
67571;SDS011;54397;47.506;19.158;2023-05-07T04:01:51;5.68;;;4.75;;
67571;SDS011;54397;47.506;19.158;2023-05-07T04:05:14;8.18;;;5.25;;
67571;SDS011;54397;47.506;19.158;2023-05-07T04:08:39;7.18;;;5.28;;
67571;SDS011;54397;47.506;19.158;2023-05-07T04:12:03;7.93;;;5.32;;
67571;SDS011;54397;47.506;19.158;2023-05-07T04:15:25;5.50;;;4.75;;
67571;SDS011;54397;47.506;19.158;2023-05-07T04:18:46;7.70;;;5.22;;
67571;SDS011;54397;47.506;19.158;2023-05-07T04:22:09;6.30;;;5.43;;
67571;SDS011;54397;47.506;19.158;2023-05-07T04:25:31;6.22;;;5.03;;
67571;SDS011;54397;47.506;19.158;2023-05-07T04:28:52;6.00;;;5.07;;
67571;SDS011;54397;47.506;19.158;2023-05-07T04:32:14;7.05;;;5.15;;
67571;SDS011;54397;47.506;19.158;2023-05-07T04:35:38;7.88;;;5.47;;
67571;SDS011;54397;47.506;19.158;2023-05-07T04:39:02;7.30;;;5.47;;
67571;SDS011;54397;47.506;19.158;2023-05-07T04:42:24;7.47;;;6.10;;
67571;SDS011;54397;47.506;19.158;2023-05-07T04:45:46;9.20;;;6.03;;
67571;SDS011;54397;47.506;19.158;2023-05-07T04:49:10;8.43;;;6.20;;
67571;SDS011;54397;47.506;19.158;2023-05-07T04:52:32;6.75;;;5.43;;
67571;SDS011;54397;47.506;19.158;2023-05-07T04:55:57;7.55;;;5.88;;
67571;SDS011;54397;47.506;19.158;2023-05-07T04:59:19;7.22;;;5.65;;
67571;SDS011;54397;47.506;19.158;2023-05-07T05:02:41;11.07;;;5.90;;
67571;SDS011;54397;47.506;19.158;2023-05-07T05:06:05;8.43;;;6.00;;
67571;SDS011;54397;47.506;19.158;2023-05-07T05:09:31;7.93;;;6.00;;
67571;SDS011;54397;47.506;19.158;2023-05-07T05:12:55;10.15;;;7.10;;
67571;SDS011;54397;47.506;19.158;2023-05-07T05:16:19;10.35;;;7.40;;
67571;SDS011;54397;47.506;19.158;2023-05-07T05:19:43;7.95;;;6.45;;
67571;SDS011;54397;47.506;19.158;2023-05-07T05:23:05;9.40;;;6.47;;
67571;SDS011;54397;47.506;19.158;2023-05-07T05:26:30;12.23;;;8.80;;
67571;SDS011;54397;47.506;19.158;2023-05-07T05:29:51;30.48;;;17.02;;
67571;SDS011;54397;47.506;19.158;2023-05-07T05:33:15;9.98;;;7.78;;
67571;SDS011;54397;47.506;19.158;2023-05-07T05:36:40;8.18;;;6.15;;
67571;SDS011;54397;47.506;19.158;2023-05-07T05:40:04;9.07;;;6.53;;
67571;SDS011;54397;47.506;19.158;2023-05-07T05:43:27;9.55;;;6.80;;
67571;SDS011;54397;47.506;19.158;2023-05-07T05:46:51;8.65;;;5.78;;
67571;SDS011;54397;47.506;19.158;2023-05-07T05:50:13;8.00;;;6.25;;
67571;SDS011;54397;47.506;19.158;2023-05-07T05:53:34;5.95;;;5.15;;
67571;SDS011;54397;47.506;19.158;2023-05-07T05:56:56;5.72;;;4.22;;
67571;SDS011;54397;47.506;19.158;2023-05-07T06:00:20;6.05;;;4.05;;
67571;SDS011;54397;47.506;19.158;2023-05-07T06:03:45;4.43;;;3.75;;
67571;SDS011;54397;47.506;19.158;2023-05-07T06:07:06;6.28;;;4.60;;
67571;SDS011;54397;47.506;19.158;2023-05-07T06:10:30;6.13;;;5.05;;
67571;SDS011;54397;47.506;19.158;2023-05-07T06:13:52;5.13;;;4.38;;
67571;SDS011;54397;47.506;19.158;2023-05-07T06:17:14;10.32;;;4.57;;
67571;SDS011;54397;47.506;19.158;2023-05-07T06:20:38;6.65;;;4.97;;
67571;SDS011;54397;47.506;19.158;2023-05-07T06:24:02;5.03;;;3.88;;
67571;SDS011;54397;47.506;19.158;2023-05-07T06:27:26;4.43;;;3.92;;
67571;SDS011;54397;47.506;19.158;2023-05-07T06:30:49;4.70;;;4.22;;
67571;SDS011;54397;47.506;19.158;2023-05-07T06:34:13;5.15;;;4.05;;
67571;SDS011;54397;47.506;19.158;2023-05-07T06:37:40;5.07;;;4.18;;
67571;SDS011;54397;47.506;19.158;2023-05-07T06:41:05;4.22;;;3.22;;
67571;SDS011;54397;47.506;19.158;2023-05-07T06:44:30;4.57;;;2.97;;
67571;SDS011;54397;47.506;19.158;2023-05-07T06:47:52;5.07;;;3.13;;
67571;SDS011;54397;47.506;19.158;2023-05-07T06:51:13;3.38;;;3.05;;
67571;SDS011;54397;47.506;19.158;2023-05-07T06:54:35;5.10;;;2.75;;
67571;SDS011;54397;47.506;19.158;2023-05-07T06:57:59;2.47;;;2.20;;
67571;SDS011;54397;47.506;19.158;2023-05-07T07:01:22;2.67;;;2.10;;
67571;SDS011;54397;47.506;19.158;2023-05-07T07:04:44;2.75;;;2.00;;
67571;SDS011;54397;47.506;19.158;2023-05-07T07:08:06;3.45;;;2.08;;
67571;SDS011;54397;47.506;19.158;2023-05-07T07:11:28;2.05;;;1.85;;
67571;SDS011;54397;47.506;19.158;2023-05-07T07:14:52;1.83;;;1.73;;
67571;SDS011;54397;47.506;19.158;2023-05-07T07:18:15;3.47;;;1.80;;
67571;SDS011;54397;47.506;19.158;2023-05-07T07:21:39;2.33;;;1.67;;
67571;SDS011;54397;47.506;19.158;2023-05-07T07:25:03;1.92;;;1.70;;
67571;SDS011;54397;47.506;19.158;2023-05-07T07:28:27;1.50;;;1.40;;
67571;SDS011;54397;47.506;19.158;2023-05-07T07:31:49;1.80;;;1.60;;
67571;SDS011;54397;47.506;19.158;2023-05-07T07:35:11;1.52;;;1.30;;
67571;SDS011;54397;47.506;19.158;2023-05-07T07:38:35;3.20;;;1.88;;
67571;SDS011;54397;47.506;19.158;2023-05-07T07:42:01;1.92;;;1.60;;
67571;SDS011;54397;47.506;19.158;2023-05-07T07:45:26;2.20;;;1.75;;
67571;SDS011;54397;47.506;19.158;2023-05-07T07:48:50;1.60;;;1.50;;
67571;SDS011;54397;47.506;19.158;2023-05-07T07:52:14;1.95;;;1.80;;
67571;SDS011;54397;47.506;19.158;2023-05-07T07:55:39;1.50;;;1.40;;
67571;SDS011;54397;47.506;19.158;2023-05-07T07:59:06;1.38;;;1.30;;
67571;SDS011;54397;47.506;19.158;2023-05-07T08:02:30;1.98;;;1.67;;
67571;SDS011;54397;47.506;19.158;2023-05-07T08:05:52;1.90;;;1.80;;
67571;SDS011;54397;47.506;19.158;2023-05-07T08:09:13;1.80;;;1.70;;
67571;SDS011;54397;47.506;19.158;2023-05-07T08:12:37;1.90;;;1.80;;
67571;SDS011;54397;47.506;19.158;2023-05-07T08:15:59;3.10;;;2.28;;
67571;SDS011;54397;47.506;19.158;2023-05-07T08:19:23;4.03;;;2.97;;
67571;SDS011;54397;47.506;19.158;2023-05-07T08:22:45;2.03;;;1.83;;
67571;SDS011;54397;47.506;19.158;2023-05-07T08:26:08;2.03;;;1.90;;
67571;SDS011;54397;47.506;19.158;2023-05-07T08:29:30;2.08;;;1.88;;
67571;SDS011;54397;47.506;19.158;2023-05-07T08:32:51;2.15;;;1.60;;
67571;SDS011;54397;47.506;19.158;2023-05-07T08:36:13;1.10;;;1.10;;
67571;SDS011;54397;47.506;19.158;2023-05-07T08:39:34;1.17;;;1.10;;
67571;SDS011;54397;47.506;19.158;2023-05-07T08:42:57;1.35;;;1.23;;
67571;SDS011;54397;47.506;19.158;2023-05-07T08:46:21;1.15;;;1.10;;
67571;SDS011;54397;47.506;19.158;2023-05-07T08:49:43;1.20;;;1.10;;
67571;SDS011;54397;47.506;19.158;2023-05-07T08:53:07;1.92;;;1.27;;
67571;SDS011;54397;47.506;19.158;2023-05-07T08:56:31;3.25;;;1.30;;
67571;SDS011;54397;47.506;19.158;2023-05-07T08:59:53;2.50;;;1.20;;
67571;SDS011;54397;47.506;19.158;2023-05-07T09:03:15;1.50;;;1.23;;
67571;SDS011;54397;47.506;19.158;2023-05-07T09:06:39;1.48;;;1.35;;
67571;SDS011;54397;47.506;19.158;2023-05-07T09:10:03;2.05;;;1.90;;
67571;SDS011;54397;47.506;19.158;2023-05-07T09:13:27;1.60;;;1.50;;
67571;SDS011;54397;47.506;19.158;2023-05-07T09:16:53;2.92;;;1.50;;
67571;SDS011;54397;47.506;19.158;2023-05-07T09:20:15;1.60;;;1.50;;
67571;SDS011;54397;47.506;19.158;2023-05-07T09:23:38;1.60;;;1.50;;
67571;SDS011;54397;47.506;19.158;2023-05-07T09:27:02;1.50;;;1.40;;
67571;SDS011;54397;47.506;19.158;2023-05-07T09:30:27;1.52;;;1.42;;
67571;SDS011;54397;47.506;19.158;2023-05-07T09:37:17;1.50;;;1.40;;
67571;SDS011;54397;47.506;19.158;2023-05-07T09:40:41;1.42;;;1.30;;
67571;SDS011;54397;47.506;19.158;2023-05-07T09:44:05;1.45;;;1.35;;
67571;SDS011;54397;47.506;19.158;2023-05-07T09:47:30;1.40;;;1.30;;
67571;SDS011;54397;47.506;19.158;2023-05-07T09:50:58;1.70;;;1.05;;
67571;SDS011;54397;47.506;19.158;2023-05-07T09:54:28;1.55;;;1.30;;
67571;SDS011;54397;47.506;19.158;2023-05-07T09:57:52;1.40;;;1.30;;
67571;SDS011;54397;47.506;19.158;2023-05-07T10:01:17;1.30;;;1.20;;
67571;SDS011;54397;47.506;19.158;2023-05-07T10:04:40;1.48;;;1.38;;
67571;SDS011;54397;47.506;19.158;2023-05-07T10:08:02;1.08;;;1.08;;
67571;SDS011;54397;47.506;19.158;2023-05-07T10:11:25;1.30;;;1.20;;
67571;SDS011;54397;47.506;19.158;2023-05-07T10:14:49;1.00;;;1.00;;
67571;SDS011;54397;47.506;19.158;2023-05-07T10:18:16;1.00;;;1.00;;
67571;SDS011;54397;47.506;19.158;2023-05-07T10:21:44;1.20;;;1.10;;
67571;SDS011;54397;47.506;19.158;2023-05-07T10:25:16;1.23;;;1.13;;
67571;SDS011;54397;47.506;19.158;2023-05-07T10:28:45;1.17;;;1.08;;
67571;SDS011;54397;47.506;19.158;2023-05-07T10:32:14;1.25;;;1.15;;
67571;SDS011;54397;47.506;19.158;2023-05-07T10:36:02;1.10;;;1.10;;
67571;SDS011;54397;47.506;19.158;2023-05-07T10:39:25;1.10;;;1.10;;
67571;SDS011;54397;47.506;19.158;2023-05-07T10:46:21;1.13;;;1.10;;
67571;SDS011;54397;47.506;19.158;2023-05-07T10:56:39;1.40;;;1.30;;
67571;SDS011;54397;47.506;19.158;2023-05-07T11:07:36;1.30;;;1.20;;
67571;SDS011;54397;47.506;19.158;2023-05-07T11:11:00;1.50;;;1.40;;
67571;SDS011;54397;47.506;19.158;2023-05-07T11:18:04;1.40;;;1.30;;
67571;SDS011;54397;47.506;19.158;2023-05-07T11:21:39;1.67;;;1.58;;
67571;SDS011;54397;47.506;19.158;2023-05-07T11:25:02;6.90;;;1.90;;
67571;SDS011;54397;47.506;19.158;2023-05-07T11:28:27;1.90;;;1.60;;
67571;SDS011;54397;47.506;19.158;2023-05-07T11:31:52;2.33;;;1.90;;
67571;SDS011;54397;47.506;19.158;2023-05-07T11:35:15;2.00;;;1.80;;
67571;SDS011;54397;47.506;19.158;2023-05-07T11:38:38;1.70;;;1.60;;
67571;SDS011;54397;47.506;19.158;2023-05-07T11:42:00;1.63;;;1.50;;
67571;SDS011;54397;47.506;19.158;2023-05-07T11:45:24;1.75;;;1.65;;
67571;SDS011;54397;47.506;19.158;2023-05-07T11:48:46;1.77;;;1.55;;
67571;SDS011;54397;47.506;19.158;2023-05-07T11:52:08;3.92;;;1.42;;
67571;SDS011;54397;47.506;19.158;2023-05-07T11:55:30;2.00;;;1.60;;
67571;SDS011;54397;47.506;19.158;2023-05-07T11:58:52;2.20;;;1.38;;
67571;SDS011;54397;47.506;19.158;2023-05-07T12:02:16;2.13;;;1.90;;
67571;SDS011;54397;47.506;19.158;2023-05-07T12:05:39;1.70;;;1.60;;
67571;SDS011;54397;47.506;19.158;2023-05-07T12:09:03;1.67;;;1.58;;
67571;SDS011;54397;47.506;19.158;2023-05-07T12:12:26;1.70;;;1.60;;
67571;SDS011;54397;47.506;19.158;2023-05-07T12:15:55;1.42;;;1.30;;
67571;SDS011;54397;47.506;19.158;2023-05-07T12:19:17;1.50;;;1.42;;
67571;SDS011;54397;47.506;19.158;2023-05-07T12:22:43;1.10;;;1.08;;
67571;SDS011;54397;47.506;19.158;2023-05-07T12:26:07;1.70;;;1.60;;
67571;SDS011;54397;47.506;19.158;2023-05-07T12:29:32;1.67;;;1.58;;
67571;SDS011;54397;47.506;19.158;2023-05-07T12:32:54;1.35;;;1.25;;
67571;SDS011;54397;47.506;19.158;2023-05-07T12:36:16;2.83;;;1.40;;
67571;SDS011;54397;47.506;19.158;2023-05-07T12:39:38;1.20;;;1.17;;
67571;SDS011;54397;47.506;19.158;2023-05-07T12:43:07;1.50;;;1.40;;
67571;SDS011;54397;47.506;19.158;2023-05-07T12:46:39;2.67;;;1.40;;
67571;SDS011;54397;47.506;19.158;2023-05-07T12:50:01;1.15;;;1.08;;
67571;SDS011;54397;47.506;19.158;2023-05-07T12:53:25;1.70;;;1.60;;
67571;SDS011;54397;47.506;19.158;2023-05-07T12:56:47;1.45;;;1.20;;
67571;SDS011;54397;47.506;19.158;2023-05-07T13:00:14;2.30;;;1.20;;
67571;SDS011;54397;47.506;19.158;2023-05-07T13:03:47;1.38;;;1.30;;
67571;SDS011;54397;47.506;19.158;2023-05-07T13:07:11;1.40;;;1.30;;
67571;SDS011;54397;47.506;19.158;2023-05-07T13:10:33;1.30;;;1.15;;
67571;SDS011;54397;47.506;19.158;2023-05-07T13:13:55;1.48;;;1.38;;
67571;SDS011;54397;47.506;19.158;2023-05-07T13:17:19;1.38;;;1.23;;
67571;SDS011;54397;47.506;19.158;2023-05-07T13:20:43;1.50;;;1.40;;
67571;SDS011;54397;47.506;19.158;2023-05-07T13:24:07;1.55;;;1.30;;
67571;SDS011;54397;47.506;19.158;2023-05-07T13:27:31;1.75;;;1.23;;
67571;SDS011;54397;47.506;19.158;2023-05-07T13:30:58;1.40;;;1.30;;
67571;SDS011;54397;47.506;19.158;2023-05-07T13:34:22;1.60;;;1.25;;
67571;SDS011;54397;47.506;19.158;2023-05-07T13:37:44;2.40;;;1.13;;
67571;SDS011;54397;47.506;19.158;2023-05-07T13:41:06;1.15;;;1.10;;
67571;SDS011;54397;47.506;19.158;2023-05-07T13:44:27;1.33;;;1.23;;
67571;SDS011;54397;47.506;19.158;2023-05-07T13:47:49;1.48;;;1.38;;
67571;SDS011;54397;47.506;19.158;2023-05-07T13:51:11;1.20;;;1.10;;
67571;SDS011;54397;47.506;19.158;2023-05-07T13:54:38;1.45;;;1.35;;
67571;SDS011;54397;47.506;19.158;2023-05-07T13:58:05;1.20;;;1.10;;
67571;SDS011;54397;47.506;19.158;2023-05-07T14:01:27;1.20;;;1.20;;
67571;SDS011;54397;47.506;19.158;2023-05-07T14:04:49;1.35;;;1.25;;
67571;SDS011;54397;47.506;19.158;2023-05-07T14:08:14;1.27;;;1.20;;
67571;SDS011;54397;47.506;19.158;2023-05-07T14:11:35;1.30;;;1.23;;
67571;SDS011;54397;47.506;19.158;2023-05-07T14:14:59;1.60;;;1.50;;
67571;SDS011;54397;47.506;19.158;2023-05-07T14:18:23;2.00;;;1.20;;
67571;SDS011;54397;47.506;19.158;2023-05-07T14:21:47;1.50;;;1.40;;
67571;SDS011;54397;47.506;19.158;2023-05-07T14:25:09;1.40;;;1.30;;
67571;SDS011;54397;47.506;19.158;2023-05-07T14:28:33;2.30;;;1.40;;
67571;SDS011;54397;47.506;19.158;2023-05-07T14:31:55;3.42;;;1.33;;
67571;SDS011;54397;47.506;19.158;2023-05-07T14:35:16;1.45;;;1.35;;
67571;SDS011;54397;47.506;19.158;2023-05-07T14:38:43;1.55;;;1.30;;
67571;SDS011;54397;47.506;19.158;2023-05-07T14:42:05;1.40;;;1.30;;
67571;SDS011;54397;47.506;19.158;2023-05-07T14:45:28;1.27;;;1.17;;
67571;SDS011;54397;47.506;19.158;2023-05-07T14:48:50;1.65;;;1.40;;
67571;SDS011;54397;47.506;19.158;2023-05-07T14:52:12;1.70;;;1.60;;
67571;SDS011;54397;47.506;19.158;2023-05-07T14:55:34;2.00;;;1.67;;
67571;SDS011;54397;47.506;19.158;2023-05-07T14:58:58;1.90;;;1.65;;
67571;SDS011;54397;47.506;19.158;2023-05-07T15:02:21;1.73;;;1.58;;
67571;SDS011;54397;47.506;19.158;2023-05-07T15:05:43;1.63;;;1.48;;
67571;SDS011;54397;47.506;19.158;2023-05-07T15:09:04;3.75;;;1.70;;
67571;SDS011;54397;47.506;19.158;2023-05-07T15:12:26;1.90;;;1.48;;
67571;SDS011;54397;47.506;19.158;2023-05-07T15:15:48;1.90;;;1.80;;
67571;SDS011;54397;47.506;19.158;2023-05-07T15:19:10;2.80;;;1.70;;
67571;SDS011;54397;47.506;19.158;2023-05-07T15:22:32;1.83;;;1.73;;
67571;SDS011;54397;47.506;19.158;2023-05-07T15:25:57;2.30;;;1.80;;
67571;SDS011;54397;47.506;19.158;2023-05-07T15:29:21;1.95;;;1.70;;
67571;SDS011;54397;47.506;19.158;2023-05-07T15:32:43;1.52;;;1.42;;
67571;SDS011;54397;47.506;19.158;2023-05-07T15:36:04;1.70;;;1.48;;
67571;SDS011;54397;47.506;19.158;2023-05-07T15:39:29;1.95;;;1.80;;
67571;SDS011;54397;47.506;19.158;2023-05-07T15:42:54;1.88;;;1.70;;
67571;SDS011;54397;47.506;19.158;2023-05-07T15:46:17;1.85;;;1.75;;
67571;SDS011;54397;47.506;19.158;2023-05-07T15:49:43;1.70;;;1.60;;
67571;SDS011;54397;47.506;19.158;2023-05-07T15:53:04;2.03;;;1.83;;
67571;SDS011;54397;47.506;19.158;2023-05-07T15:56:26;3.33;;;2.03;;
67571;SDS011;54397;47.506;19.158;2023-05-07T15:59:48;2.42;;;1.70;;
67571;SDS011;54397;47.506;19.158;2023-05-07T16:03:15;2.85;;;1.60;;
67571;SDS011;54397;47.506;19.158;2023-05-07T16:06:39;1.58;;;1.48;;
67571;SDS011;54397;47.506;19.158;2023-05-07T16:10:01;1.10;;;1.10;;
67571;SDS011;54397;47.506;19.158;2023-05-07T16:13:24;1.40;;;1.30;;
67571;SDS011;54397;47.506;19.158;2023-05-07T16:16:49;1.40;;;1.30;;
67571;SDS011;54397;47.506;19.158;2023-05-07T16:20:10;1.20;;;1.10;;
67571;SDS011;54397;47.506;19.158;2023-05-07T16:23:33;2.08;;;1.40;;
67571;SDS011;54397;47.506;19.158;2023-05-07T16:26:55;1.33;;;1.25;;
67571;SDS011;54397;47.506;19.158;2023-05-07T16:30:19;1.60;;;1.33;;
67571;SDS011;54397;47.506;19.158;2023-05-07T16:33:43;1.40;;;1.30;;
67571;SDS011;54397;47.506;19.158;2023-05-07T16:37:07;1.30;;;1.20;;
67571;SDS011;54397;47.506;19.158;2023-05-07T16:40:28;1.75;;;1.20;;
67571;SDS011;54397;47.506;19.158;2023-05-07T16:43:50;1.75;;;1.27;;
67571;SDS011;54397;47.506;19.158;2023-05-07T16:47:12;1.10;;;1.10;;
67571;SDS011;54397;47.506;19.158;2023-05-07T16:50:36;1.00;;;1.00;;
67571;SDS011;54397;47.506;19.158;2023-05-07T16:53:58;1.52;;;1.30;;
67571;SDS011;54397;47.506;19.158;2023-05-07T16:57:20;0.85;;;0.85;;
67571;SDS011;54397;47.506;19.158;2023-05-07T17:00:47;1.20;;;1.10;;
67571;SDS011;54397;47.506;19.158;2023-05-07T17:04:11;1.00;;;1.00;;
67571;SDS011;54397;47.506;19.158;2023-05-07T17:07:35;1.65;;;1.30;;
67571;SDS011;54397;47.506;19.158;2023-05-07T17:10:57;3.10;;;1.10;;
67571;SDS011;54397;47.506;19.158;2023-05-07T17:14:18;0.88;;;0.88;;
67571;SDS011;54397;47.506;19.158;2023-05-07T17:17:40;1.02;;;1.02;;
67571;SDS011;54397;47.506;19.158;2023-05-07T17:21:02;1.30;;;1.20;;
67571;SDS011;54397;47.506;19.158;2023-05-07T17:24:23;1.30;;;1.20;;
67571;SDS011;54397;47.506;19.158;2023-05-07T17:27:45;1.25;;;1.10;;
67571;SDS011;54397;47.506;19.158;2023-05-07T17:31:09;1.00;;;1.00;;
67571;SDS011;54397;47.506;19.158;2023-05-07T17:34:31;1.00;;;1.00;;
67571;SDS011;54397;47.506;19.158;2023-05-07T17:37:55;1.30;;;0.90;;
67571;SDS011;54397;47.506;19.158;2023-05-07T17:41:16;3.50;;;1.15;;
67571;SDS011;54397;47.506;19.158;2023-05-07T17:44:38;1.33;;;1.23;;
67571;SDS011;54397;47.506;19.158;2023-05-07T17:48:02;1.60;;;1.50;;
67571;SDS011;54397;47.506;19.158;2023-05-07T17:51:24;2.97;;;1.90;;
67571;SDS011;54397;47.506;19.158;2023-05-07T17:55:02;1.00;;;1.00;;
67571;SDS011;54397;47.506;19.158;2023-05-07T17:58:24;1.02;;;0.90;;
67571;SDS011;54397;47.506;19.158;2023-05-07T18:01:49;1.20;;;1.10;;
67571;SDS011;54397;47.506;19.158;2023-05-07T18:05:13;1.00;;;1.00;;
67571;SDS011;54397;47.506;19.158;2023-05-07T18:08:35;1.00;;;1.00;;
67571;SDS011;54397;47.506;19.158;2023-05-07T18:12:00;1.00;;;1.00;;
67571;SDS011;54397;47.506;19.158;2023-05-07T18:15:24;1.05;;;1.05;;
67571;SDS011;54397;47.506;19.158;2023-05-07T18:18:46;2.75;;;1.30;;
67571;SDS011;54397;47.506;19.158;2023-05-07T18:22:08;1.35;;;1.20;;
67571;SDS011;54397;47.506;19.158;2023-05-07T18:25:29;1.20;;;1.10;;
67571;SDS011;54397;47.506;19.158;2023-05-07T18:28:51;1.35;;;1.23;;
67571;SDS011;54397;47.506;19.158;2023-05-07T18:32:15;1.20;;;1.17;;
67571;SDS011;54397;47.506;19.158;2023-05-07T18:35:40;1.20;;;1.10;;
67571;SDS011;54397;47.506;19.158;2023-05-07T18:39:04;2.08;;;1.23;;
67571;SDS011;54397;47.506;19.158;2023-05-07T18:42:25;1.10;;;1.10;;
67571;SDS011;54397;47.506;19.158;2023-05-07T18:45:49;1.40;;;1.30;;
67571;SDS011;54397;47.506;19.158;2023-05-07T18:49:11;2.95;;;1.83;;
67571;SDS011;54397;47.506;19.158;2023-05-07T18:52:32;2.65;;;2.10;;
67571;SDS011;54397;47.506;19.158;2023-05-07T18:55:54;2.38;;;1.98;;
67571;SDS011;54397;47.506;19.158;2023-05-07T18:59:18;2.78;;;2.33;;
67571;SDS011;54397;47.506;19.158;2023-05-07T19:02:42;4.00;;;2.60;;
67571;SDS011;54397;47.506;19.158;2023-05-07T19:06:06;4.72;;;2.97;;
67571;SDS011;54397;47.506;19.158;2023-05-07T19:09:28;2.53;;;2.17;;
67571;SDS011;54397;47.506;19.158;2023-05-07T19:12:52;2.72;;;2.35;;
67571;SDS011;54397;47.506;19.158;2023-05-07T19:16:18;5.28;;;2.30;;
67571;SDS011;54397;47.506;19.158;2023-05-07T19:19:42;3.78;;;1.77;;
67571;SDS011;54397;47.506;19.158;2023-05-07T19:23:09;2.58;;;2.33;;
67571;SDS011;54397;47.506;19.158;2023-05-07T19:26:32;1.98;;;1.77;;
67571;SDS011;54397;47.506;19.158;2023-05-07T19:29:54;1.63;;;1.52;;
67571;SDS011;54397;47.506;19.158;2023-05-07T19:33:18;3.42;;;1.88;;
67571;SDS011;54397;47.506;19.158;2023-05-07T19:36:40;1.45;;;1.35;;
67571;SDS011;54397;47.506;19.158;2023-05-07T19:40:01;1.60;;;1.40;;
67571;SDS011;54397;47.506;19.158;2023-05-07T19:43:25;2.50;;;1.65;;
67571;SDS011;54397;47.506;19.158;2023-05-07T19:46:47;1.55;;;1.30;;
67571;SDS011;54397;47.506;19.158;2023-05-07T19:50:08;1.52;;;1.40;;
67571;SDS011;54397;47.506;19.158;2023-05-07T19:53:33;4.07;;;3.08;;
67571;SDS011;54397;47.506;19.158;2023-05-07T19:56:56;1.55;;;1.30;;
67571;SDS011;54397;47.506;19.158;2023-05-07T20:00:25;1.50;;;1.40;;
67571;SDS011;54397;47.506;19.158;2023-05-07T20:03:50;4.28;;;1.40;;
67571;SDS011;54397;47.506;19.158;2023-05-07T20:07:12;2.30;;;1.33;;
67571;SDS011;54397;47.506;19.158;2023-05-07T20:10:36;1.40;;;1.30;;
67571;SDS011;54397;47.506;19.158;2023-05-07T20:14:01;1.40;;;1.30;;
67571;SDS011;54397;47.506;19.158;2023-05-07T20:17:27;0.95;;;0.95;;
67571;SDS011;54397;47.506;19.158;2023-05-07T20:20:51;1.17;;;1.08;;
67571;SDS011;54397;47.506;19.158;2023-05-07T20:24:17;1.30;;;1.20;;
67571;SDS011;54397;47.506;19.158;2023-05-07T20:27:39;3.33;;;1.48;;
67571;SDS011;54397;47.506;19.158;2023-05-07T20:31:01;4.72;;;1.35;;
67571;SDS011;54397;47.506;19.158;2023-05-07T20:34:23;1.77;;;1.30;;